createdAt,value
2022-08-25T00:00:46.980Z,99542.19
2022-08-25T00:02:10.865Z,99539.66
2022-08-25T00:03:22.701Z,99532.38
2022-08-25T00:04:33.750Z,99528.00
2022-08-25T00:05:44.325Z,99534.06
2022-08-25T00:06:57.268Z,99534.25
2022-08-25T00:08:09.057Z,99534.06
2022-08-25T00:09:23.965Z,99537.78
2022-08-25T00:10:40.462Z,99529.88
2022-08-25T00:11:50.038Z,99539.00
2022-08-25T00:13:00.451Z,99533.94
2022-08-25T00:14:16.939Z,99526.16
2022-08-25T00:15:25.952Z,99533.44
2022-08-25T00:16:33.856Z,99529.72
2022-08-25T00:17:43.344Z,99529.38
2022-08-25T00:19:00.927Z,99520.94
2022-08-25T00:20:14.010Z,99536.34
2022-08-25T00:21:27.781Z,99528.91
2022-08-25T00:22:34.711Z,99533.78
2022-08-25T00:23:51.049Z,99529.38
2022-08-25T00:25:03.526Z,99542.06
2022-08-25T00:26:18.879Z,99522.81
2022-08-25T00:27:31.716Z,99539.19
2022-08-25T00:28:46.630Z,99538.34
2022-08-25T00:29:57.378Z,99533.78
2022-08-25T00:31:05.569Z,99535.63
2022-08-25T00:32:19.316Z,99527.22
2022-08-25T00:33:25.379Z,99521.66
2022-08-25T00:34:46.445Z,99529.94
2022-08-25T00:36:00.239Z,99524.53
2022-08-25T00:37:17.611Z,99522.16
2022-08-25T00:38:27.766Z,99526.19
2022-08-25T00:39:51.662Z,99501.75
2022-08-25T00:41:06.588Z,99518.25
2022-08-25T00:42:18.485Z,99521.97
2022-08-25T00:43:40.338Z,99519.25
2022-08-25T00:44:52.998Z,99523.66
2022-08-25T00:46:04.543Z,99518.25
2022-08-25T00:47:17.217Z,99528.41
2022-08-25T00:48:30.373Z,99522.31
2022-08-25T00:50:04.699Z,99533.81
2022-08-25T00:51:33.138Z,99528.56
2022-08-25T00:52:52.630Z,99515.25
2022-08-25T00:54:03.955Z,99522.16
2022-08-25T00:55:43.477Z,99516.75
2022-08-25T00:56:54.425Z,99526.06
2022-08-25T00:58:27.806Z,99524.38
2022-08-25T00:59:39.795Z,99527.22
2022-08-25T01:00:54.765Z,99525.72
2022-08-25T01:02:20.075Z,99524.41
2022-08-25T01:03:37.445Z,99523.72
2022-08-25T01:04:52.942Z,99528.63
2022-08-25T01:06:03.116Z,99527.59
2022-08-25T01:07:17.437Z,99531.16
2022-08-25T01:08:36.811Z,99526.22
2022-08-25T01:09:53.974Z,99530.66
2022-08-25T01:11:18.594Z,99529.28
2022-08-25T01:12:28.708Z,99528.25
2022-08-25T01:13:54.046Z,99523.53
2022-08-25T01:15:11.142Z,99525.41
2022-08-25T01:16:30.250Z,99520.84
2022-08-25T01:18:11.777Z,99523.53
2022-08-25T01:19:32.873Z,99529.13
2022-08-25T01:20:45.968Z,99532.50
2022-08-25T01:21:59.866Z,99528.28
2022-08-25T01:23:18.126Z,99518.66
2022-08-25T01:25:06.085Z,99523.06
2022-08-25T01:26:30.490Z,99523.53
2022-08-25T01:27:44.474Z,99521.69
2022-08-25T01:29:16.417Z,99517.66
2022-08-25T01:30:27.718Z,99508.72
2022-08-25T01:31:41.483Z,99514.94
2022-08-25T01:32:53.427Z,99511.41
2022-08-25T01:34:09.810Z,99509.53
2022-08-25T01:35:24.805Z,99487.44
2022-08-25T01:36:48.853Z,99510.56
2022-08-25T01:37:58.988Z,99501.28
2022-08-25T01:39:22.953Z,99506.31
2022-08-25T01:40:52.635Z,99509.53
2022-08-25T01:42:22.190Z,99505.31
2022-08-25T01:43:41.597Z,99502.97
2022-08-25T01:45:08.455Z,99498.41
2022-08-25T01:46:18.029Z,99500.25
2022-08-25T01:47:40.853Z,99503.97
2022-08-25T01:48:55.228Z,99498.75
2022-08-25T01:50:08.010Z,99498.91
2022-08-25T01:51:33.419Z,99499.91
2022-08-25T01:53:12.632Z,99496.38
2022-08-25T01:54:22.773Z,99498.41
2022-08-25T01:55:32.006Z,99499.25
2022-08-25T01:56:43.338Z,99496.38
2022-08-25T01:58:00.327Z,99492.00
2022-08-25T01:59:11.394Z,99490.50
2022-08-25T02:00:28.626Z,99493.00
2022-08-25T02:01:47.313Z,99491.16
2022-08-25T02:02:59.519Z,99485.09
2022-08-25T02:04:08.614Z,99486.78
2022-08-25T02:05:23.676Z,99485.94
2022-08-25T02:06:36.839Z,99480.53
2022-08-25T02:07:50.731Z,99484.25
2022-08-25T02:09:11.209Z,99483.41
2022-08-25T02:10:19.579Z,99483.22
2022-08-25T02:11:32.566Z,99477.50
2022-08-25T02:12:42.250Z,99479.69
2022-08-25T02:13:54.737Z,99479.00
2022-08-25T02:15:10.258Z,99481.88
2022-08-25T02:16:32.486Z,99486.25
2022-08-25T02:17:49.441Z,99486.25
2022-08-25T02:19:00.719Z,99485.25
2022-08-25T02:20:11.962Z,99491.66
2022-08-25T02:21:20.236Z,99482.88
2022-08-25T02:22:33.342Z,99474.13
2022-08-25T02:23:43.738Z,99481.88
2022-08-25T02:25:00.048Z,99484.75
2022-08-25T02:26:09.155Z,99478.34
2022-08-25T02:27:25.355Z,99489.50
2022-08-25T02:28:33.734Z,99481.53
2022-08-25T02:29:42.580Z,99478.16
2022-08-25T02:30:58.606Z,99487.13
2022-08-25T02:32:10.436Z,99476.31
2022-08-25T02:33:19.016Z,99471.25
2022-08-25T02:34:30.389Z,99475.66
2022-08-25T02:35:45.477Z,99461.97
2022-08-25T02:37:05.666Z,99476.13
2022-08-25T02:38:17.771Z,99465.84
2022-08-25T02:39:28.933Z,99473.78
2022-08-25T02:40:39.566Z,99470.25
2022-08-25T02:41:53.725Z,99469.59
2022-08-25T02:43:04.251Z,99476.84
2022-08-25T02:44:14.588Z,99427.75
2022-08-25T02:45:23.814Z,99472.44
2022-08-25T02:46:34.177Z,99476.00
2022-08-25T02:47:43.128Z,99476.84
2022-08-25T02:48:52.453Z,99473.63
2022-08-25T02:50:01.991Z,99475.13
2022-08-25T02:51:19.661Z,99478.34
2022-08-25T02:52:33.839Z,99482.25
2022-08-25T02:53:45.183Z,99467.56
2022-08-25T02:54:56.348Z,99476.84
2022-08-25T02:56:10.891Z,99474.28
2022-08-25T02:57:21.833Z,99486.63
2022-08-25T02:58:35.623Z,99477.84
2022-08-25T02:59:49.544Z,99483.94
2022-08-25T03:01:09.571Z,99478.69
2022-08-25T03:02:26.939Z,99470.09
2022-08-25T03:03:39.429Z,99476.84
2022-08-25T03:04:52.604Z,99475.47
2022-08-25T03:06:06.731Z,99482.75
2022-08-25T03:07:19.846Z,99473.97
2022-08-25T03:08:33.637Z,99470.75
2022-08-25T03:09:41.653Z,99473.47
2022-08-25T03:10:50.165Z,99471.59
2022-08-25T03:12:02.993Z,99474.47
2022-08-25T03:13:12.534Z,99465.72
2022-08-25T03:14:21.511Z,99467.41
2022-08-25T03:15:37.693Z,99467.75
2022-08-25T03:16:49.669Z,99470.28
2022-08-25T03:18:03.649Z,99465.72
2022-08-25T03:19:16.072Z,99459.47
2022-08-25T03:20:31.349Z,99464.69
2022-08-25T03:21:44.153Z,99469.44
2022-08-25T03:23:03.513Z,99460.50
2022-08-25T03:24:13.885Z,99469.44
2022-08-25T03:25:40.017Z,99460.63
2022-08-25T03:27:02.528Z,99474.00
2022-08-25T03:28:14.746Z,99464.03
2022-08-25T03:29:28.700Z,99465.88
2022-08-25T03:30:53.351Z,99466.88
2022-08-25T03:32:07.016Z,99470.44
2022-08-25T03:33:23.025Z,99465.06
2022-08-25T03:34:34.451Z,99469.44
2022-08-25T03:35:44.967Z,99461.66
2022-08-25T03:36:58.944Z,99457.28
2022-08-25T03:38:17.918Z,99462.50
2022-08-25T03:39:31.442Z,99465.88
2022-08-25T03:40:46.723Z,99465.88
2022-08-25T03:41:56.815Z,99462.34
2022-08-25T03:43:08.384Z,99460.63
2022-08-25T03:44:18.154Z,99465.06
2022-08-25T03:45:30.984Z,99467.75
2022-08-25T03:47:03.640Z,99460.50
2022-08-25T03:48:15.592Z,99461.31
2022-08-25T03:49:27.229Z,99463.00
2022-08-25T03:50:57.161Z,99463.34
2022-08-25T03:52:08.337Z,99466.72
2022-08-25T03:53:18.281Z,99460.63
2022-08-25T03:54:33.840Z,99457.94
2022-08-25T03:55:51.836Z,99460.50
2022-08-25T03:57:07.063Z,99455.22
2022-08-25T03:58:19.850Z,99453.56
2022-08-25T03:59:30.458Z,99453.56
2022-08-25T04:00:39.714Z,99459.78
2022-08-25T04:01:55.607Z,99452.53
2022-08-25T04:03:07.327Z,99456.94
2022-08-25T04:04:29.881Z,99462.00
2022-08-25T04:05:45.435Z,99459.47
2022-08-25T04:07:02.149Z,99452.88
2022-08-25T04:08:12.810Z,99455.41
2022-08-25T04:09:22.676Z,99462.66
2022-08-25T04:10:34.630Z,99457.25
2022-08-25T04:11:46.247Z,99457.91
2022-08-25T04:13:09.660Z,99456.94
2022-08-25T04:14:20.163Z,99459.28
2022-08-25T04:15:35.710Z,99456.41
2022-08-25T04:16:52.761Z,99456.41
2022-08-25T04:18:04.127Z,99445.94
2022-08-25T04:19:16.708Z,99454.88
2022-08-25T04:20:35.665Z,99458.25
2022-08-25T04:21:56.720Z,99413.41
2022-08-25T04:23:13.459Z,99455.22
2022-08-25T04:24:34.089Z,99460.44
2022-08-25T04:25:57.702Z,99461.28
2022-08-25T04:27:17.901Z,99456.53
2022-08-25T04:28:36.721Z,99455.19
2022-08-25T04:29:48.501Z,99461.63
2022-08-25T04:30:57.497Z,99457.72
2022-08-25T04:32:12.118Z,99467.31
2022-08-25T04:33:19.366Z,99465.13
2022-08-25T04:34:31.530Z,99474.44
2022-08-25T04:35:45.899Z,99470.72
2022-08-25T04:36:58.208Z,99468.31
2022-08-25T04:38:09.767Z,99471.84
2022-08-25T04:39:25.442Z,99482.53
2022-08-25T04:40:35.789Z,99478.44
2022-08-25T04:41:47.530Z,99471.16
2022-08-25T04:42:55.011Z,99470.16
2022-08-25T04:44:05.564Z,99464.41
2022-08-25T04:45:16.883Z,99466.94
2022-08-25T04:46:29.748Z,99466.75
2022-08-25T04:47:44.299Z,99472.06
2022-08-25T04:48:59.055Z,99466.28
2022-08-25T04:50:11.918Z,99460.88
2022-08-25T04:51:34.555Z,99466.44
2022-08-25T04:52:48.151Z,99463.38
2022-08-25T04:54:02.901Z,99456.94
2022-08-25T04:55:20.027Z,99457.44
2022-08-25T04:56:39.286Z,99462.47
2022-08-25T04:57:50.163Z,99456.75
2022-08-25T04:58:58.530Z,99462.63
2022-08-25T05:00:08.397Z,99467.69
2022-08-25T05:01:25.549Z,99459.59
2022-08-25T05:02:46.176Z,99463.78
2022-08-25T05:04:03.431Z,99451.81
2022-08-25T05:05:14.047Z,99454.13
2022-08-25T05:06:24.625Z,99456.84
2022-08-25T05:07:44.620Z,99466.28
2022-08-25T05:08:51.835Z,99456.97
2022-08-25T05:10:08.143Z,99459.31
2022-08-25T05:11:26.067Z,99456.09
2022-08-25T05:12:35.901Z,99447.78
2022-08-25T05:13:44.282Z,99455.91
2022-08-25T05:15:22.016Z,99449.13
2022-08-25T05:16:32.913Z,99448.75
2022-08-25T05:17:58.951Z,99452.50
2022-08-25T05:19:11.398Z,99446.25
2022-08-25T05:20:23.806Z,99453.97
2022-08-25T05:21:37.214Z,99446.72
2022-08-25T05:22:47.835Z,99454.31
2022-08-25T05:24:09.902Z,99455.59
2022-08-25T05:25:33.833Z,99448.84
2022-08-25T05:26:45.964Z,99452.03
2022-08-25T05:28:04.893Z,99453.56
2022-08-25T05:29:13.602Z,99455.06
2022-08-25T05:30:25.701Z,99455.72
2022-08-25T05:31:44.014Z,99449.13
2022-08-25T05:32:56.070Z,99444.84
2022-08-25T05:34:10.399Z,99428.50
2022-08-25T05:35:21.025Z,99448.97
2022-08-25T05:36:32.528Z,99444.91
2022-08-25T05:37:42.588Z,99444.34
2022-08-25T05:38:59.121Z,99449.88
2022-08-25T05:40:13.614Z,99452.69
2022-08-25T05:41:30.418Z,99447.00
2022-08-25T05:42:41.265Z,99438.16
2022-08-25T05:43:54.087Z,99448.41
2022-08-25T05:45:15.874Z,99448.78
2022-08-25T05:46:31.757Z,99443.72
2022-08-25T05:47:44.334Z,99448.06
2022-08-25T05:49:00.568Z,99447.97
2022-08-25T05:50:13.393Z,99433.09
2022-08-25T05:51:25.122Z,99453.19
2022-08-25T05:52:45.085Z,99450.34
2022-08-25T05:53:57.819Z,99442.16
2022-08-25T05:55:11.027Z,99449.81
2022-08-25T05:56:27.796Z,99440.03
2022-08-25T05:57:44.345Z,99439.56
2022-08-25T05:58:54.400Z,99438.41
2022-08-25T06:00:19.325Z,99439.09
2022-08-25T06:01:53.370Z,99442.16
2022-08-25T06:03:05.754Z,99447.97
2022-08-25T06:04:26.686Z,99440.06
2022-08-25T06:05:36.738Z,99439.34
2022-08-25T06:06:47.342Z,99441.06
2022-08-25T06:08:05.809Z,99438.53
2022-08-25T06:09:24.204Z,99444.06
2022-08-25T06:10:41.314Z,99441.66
2022-08-25T06:12:10.727Z,99437.81
2022-08-25T06:13:28.689Z,99383.34
2022-08-25T06:14:44.787Z,99439.00
2022-08-25T06:16:10.346Z,99437.63
2022-08-25T06:17:30.011Z,99448.38
2022-08-25T06:18:43.369Z,99439.19
2022-08-25T06:20:01.481Z,99438.84
2022-08-25T06:21:19.716Z,99442.41
2022-08-25T06:22:30.891Z,99444.50
2022-08-25T06:23:44.838Z,99437.22
2022-08-25T06:25:12.356Z,99449.59
2022-08-25T06:26:22.887Z,99442.69
2022-08-25T06:27:47.387Z,99446.03
2022-08-25T06:29:04.207Z,99445.63
2022-08-25T06:30:28.420Z,99450.22
2022-08-25T06:31:39.707Z,99448.88
2022-08-25T06:32:50.394Z,99452.38
2022-08-25T06:34:00.094Z,99446.50
2022-08-25T06:35:15.440Z,99448.56
2022-08-25T06:36:27.593Z,99444.53
2022-08-25T06:39:07.824Z,99448.78
2022-08-25T06:40:42.725Z,99450.03
2022-08-25T06:42:13.754Z,99452.47
2022-08-25T06:43:32.617Z,99461.84
2022-08-25T06:44:48.691Z,99463.06
2022-08-25T06:46:37.279Z,99456.69
2022-08-25T06:47:47.335Z,99455.41
2022-08-25T06:49:08.228Z,99461.50
2022-08-25T06:50:30.812Z,99460.03
2022-08-25T06:51:48.289Z,99453.66
2022-08-25T06:53:17.255Z,99457.59
2022-08-25T06:54:29.736Z,99465.59
2022-08-25T06:55:36.932Z,99460.22
2022-08-25T06:56:59.557Z,99452.91
2022-08-25T06:58:44.799Z,99455.53
2022-08-25T07:00:03.333Z,99457.78
2022-08-25T07:01:36.623Z,99457.16
2022-08-25T07:03:05.879Z,99450.47
2022-08-25T07:04:19.999Z,99456.97
2022-08-25T07:05:42.812Z,99458.34
2022-08-25T07:07:01.574Z,99456.75
2022-08-25T07:08:27.687Z,99453.47
2022-08-25T07:09:41.631Z,99459.09
2022-08-25T07:10:51.043Z,99425.16
2022-08-25T07:12:00.405Z,99449.97
2022-08-25T07:13:17.801Z,99457.13
2022-08-25T07:14:32.437Z,99460.34
2022-08-25T07:15:54.413Z,99453.19
2022-08-25T07:17:12.012Z,99459.81
2022-08-25T07:18:24.401Z,99464.00
2022-08-25T07:19:38.762Z,99447.88
2022-08-25T07:20:47.752Z,99447.38
2022-08-25T07:22:10.561Z,99452.81
2022-08-25T07:23:27.641Z,99451.34
2022-08-25T07:24:38.628Z,99460.94
2022-08-25T07:25:51.050Z,99452.13
2022-08-25T07:27:07.793Z,99454.00
2022-08-25T07:28:23.438Z,99452.75
2022-08-25T07:30:08.229Z,99451.94
2022-08-25T07:33:21.762Z,99456.34
2022-08-25T07:35:16.034Z,99455.50
2022-08-25T07:36:35.755Z,99454.34
2022-08-25T07:38:12.585Z,99454.81
2022-08-25T07:39:56.325Z,99453.97
2022-08-25T07:41:15.987Z,99465.03
2022-08-25T07:42:34.667Z,99448.94
2022-08-25T07:43:52.705Z,99463.47
2022-08-25T07:45:20.774Z,99451.56
2022-08-25T07:46:39.369Z,99460.63
2022-08-25T07:47:57.929Z,99464.13
2022-08-25T07:49:16.675Z,99458.50
2022-08-25T07:50:57.865Z,99436.13
2022-08-25T07:52:09.016Z,99461.28
2022-08-25T07:53:32.787Z,99456.75
2022-08-25T07:55:08.269Z,99456.63
2022-08-25T07:56:28.332Z,99459.75
2022-08-25T07:57:41.891Z,99458.63
2022-08-25T07:59:39.317Z,99454.34
2022-08-25T08:01:11.545Z,99454.66
2022-08-25T08:02:45.399Z,99454.63
2022-08-25T08:03:57.587Z,99450.31
2022-08-25T08:05:37.299Z,99450.31
2022-08-25T08:08:54.807Z,99454.84
2022-08-25T08:11:56.331Z,99444.28
2022-08-25T08:13:07.682Z,99443.78
2022-08-25T08:14:20.658Z,99447.75
2022-08-25T08:15:35.961Z,99435.53
2022-08-25T08:17:11.618Z,99443.97
2022-08-25T08:18:31.228Z,99444.69
2022-08-25T08:19:47.345Z,99454.00
2022-08-25T08:20:59.818Z,99444.56
2022-08-25T08:22:15.763Z,99442.56
2022-08-25T08:23:32.287Z,99439.75
2022-08-25T08:24:54.491Z,99440.41
2022-08-25T08:26:11.864Z,99438.94
2022-08-25T08:27:21.070Z,99444.69
2022-08-25T08:28:36.607Z,99418.75
2022-08-25T08:29:50.881Z,99450.72
2022-08-25T08:31:06.936Z,99450.00
2022-08-25T08:32:53.245Z,99446.09
2022-08-25T08:34:06.245Z,99433.16
2022-08-25T08:35:22.836Z,99438.75
2022-08-25T08:36:37.534Z,99446.72
2022-08-25T08:37:48.335Z,99435.28
2022-08-25T08:39:02.394Z,99445.59
2022-08-25T08:40:20.740Z,99435.06
2022-08-25T08:42:11.895Z,99430.31
2022-08-25T08:43:27.529Z,99437.22
2022-08-25T08:45:06.135Z,99416.63
2022-08-25T08:46:20.476Z,99436.34
2022-08-25T08:48:07.521Z,99428.91
2022-08-25T08:50:06.051Z,99424.41
2022-08-25T08:51:32.974Z,99427.69
2022-08-25T08:53:07.080Z,99432.31
2022-08-25T08:54:26.951Z,99428.03
2022-08-25T08:56:11.735Z,99431.19
2022-08-25T08:57:32.100Z,99424.28
2022-08-25T08:58:56.275Z,99412.56
2022-08-25T09:00:07.754Z,99426.69
2022-08-25T09:02:03.006Z,99428.91
2022-08-25T09:03:36.675Z,99424.72
2022-08-25T09:05:05.773Z,99421.63
2022-08-25T09:06:33.212Z,99430.13
2022-08-25T09:08:09.019Z,99430.47
2022-08-25T09:09:40.630Z,99403.13
2022-08-25T09:11:16.494Z,99420.91
2022-08-25T09:13:00.535Z,99413.63
2022-08-25T09:15:15.745Z,99427.66
2022-08-25T09:16:58.369Z,99395.34
2022-08-25T09:18:41.258Z,99417.47
2022-08-25T09:21:16.479Z,99413.81
2022-08-25T09:25:52.287Z,99417.50
2022-08-25T09:27:45.734Z,99404.56
2022-08-25T09:29:25.400Z,99396.47
2022-08-25T09:31:16.097Z,99412.84
2022-08-25T09:33:06.043Z,99410.44
2022-08-25T09:34:33.287Z,99413.72
2022-08-25T09:36:11.383Z,99415.41
2022-08-25T09:37:53.472Z,99406.00
2022-08-25T09:39:24.307Z,99407.56
2022-08-25T09:40:53.667Z,99411.34
2022-08-25T09:42:07.930Z,99408.72
2022-08-25T09:43:37.802Z,99408.03
2022-08-25T09:44:50.179Z,99403.53
2022-08-25T09:46:18.242Z,99399.53
2022-08-25T09:47:33.000Z,99397.41
2022-08-25T09:48:56.137Z,99392.78
2022-08-25T09:50:08.769Z,99392.81
2022-08-25T09:51:45.399Z,99393.44
2022-08-25T09:52:56.477Z,99396.03
2022-08-25T09:54:49.176Z,99396.09
2022-08-25T09:56:14.113Z,99397.47
2022-08-25T09:58:03.178Z,99391.50
2022-08-25T09:59:57.375Z,99390.72
2022-08-25T10:01:16.812Z,99382.09
2022-08-25T10:02:48.276Z,99390.44
2022-08-25T10:04:18.894Z,99389.63
2022-08-25T10:05:36.375Z,99387.63
2022-08-25T10:06:55.125Z,99380.84
2022-08-25T10:08:25.042Z,99381.94
2022-08-25T10:09:44.391Z,99378.75
2022-08-25T10:11:16.952Z,99373.25
2022-08-25T10:12:44.869Z,99373.22
2022-08-25T10:14:46.303Z,99377.25
2022-08-25T10:16:35.593Z,99381.00
2022-08-25T10:17:47.156Z,99376.16
2022-08-25T10:19:18.566Z,99375.94
2022-08-25T10:21:02.504Z,99377.66
2022-08-25T10:22:52.729Z,99381.47
2022-08-25T10:24:04.449Z,99377.75
2022-08-25T10:25:24.261Z,99372.38
2022-08-25T10:27:29.301Z,99378.13
2022-08-25T10:29:23.890Z,99375.00
2022-08-25T10:31:09.632Z,99366.66
2022-08-25T10:32:58.948Z,99346.41
2022-08-25T10:34:57.621Z,99354.28
2022-08-25T10:36:52.518Z,99355.44
2022-08-25T10:38:45.923Z,99351.97
2022-08-25T10:40:39.045Z,99349.44
2022-08-25T10:42:37.676Z,99348.47
2022-08-25T10:44:38.538Z,99305.09
2022-08-25T10:46:23.132Z,99346.53
2022-08-25T10:48:42.561Z,99340.78
2022-08-25T10:49:58.250Z,99332.50
2022-08-25T10:51:54.331Z,99337.88
2022-08-25T10:53:20.354Z,99342.53
2022-08-25T10:55:14.101Z,99337.97
2022-08-25T10:57:04.699Z,99338.44
2022-08-25T10:59:07.685Z,99338.69
2022-08-25T11:00:41.523Z,99335.31
2022-08-25T11:02:46.915Z,99333.91
2022-08-25T11:04:40.908Z,99329.97
2022-08-25T11:06:34.185Z,99315.63
2022-08-25T11:07:53.863Z,99326.69
2022-08-25T11:09:12.175Z,99324.19
2022-08-25T11:10:37.397Z,99321.94
2022-08-25T11:12:23.980Z,99329.41
2022-08-25T11:13:47.477Z,99302.63
2022-08-25T11:15:25.635Z,99317.72
2022-08-25T11:16:52.812Z,99316.31
2022-08-25T11:18:15.660Z,99330.00
2022-08-25T11:19:54.825Z,99329.38
2022-08-25T11:21:39.728Z,99316.31
2022-08-25T11:23:25.807Z,99305.69
2022-08-25T11:25:24.844Z,99286.59
2022-08-25T11:26:47.350Z,99294.72
2022-08-25T11:28:19.098Z,99311.69
2022-08-25T11:29:40.108Z,99313.44
2022-08-25T11:31:02.264Z,99316.41
2022-08-25T11:32:19.196Z,99305.84
2022-08-25T11:33:37.986Z,99305.84
2022-08-25T11:34:48.190Z,99301.19
2022-08-25T11:36:15.518Z,99299.06
2022-08-25T11:37:40.269Z,99300.84
2022-08-25T11:39:33.095Z,99305.78
2022-08-25T11:41:10.988Z,99295.47
2022-08-25T11:43:12.431Z,99296.88
2022-08-25T11:44:53.122Z,99303.56
2022-08-25T11:46:41.797Z,99296.66
2022-08-25T11:48:42.525Z,99300.66
2022-08-25T11:50:08.058Z,99283.78
2022-08-25T11:51:48.635Z,99301.97
2022-08-25T11:53:16.161Z,99271.34
2022-08-25T11:54:46.848Z,99296.09
2022-08-25T11:56:11.267Z,99290.25
2022-08-25T11:57:33.633Z,99288.56
2022-08-25T11:59:39.238Z,99287.28
2022-08-25T12:00:52.662Z,99284.53
2022-08-25T12:03:25.872Z,99284.72
2022-08-25T12:04:49.914Z,99280.31
2022-08-25T12:06:41.901Z,99285.56
2022-08-25T12:08:23.297Z,99276.50
2022-08-25T12:09:58.603Z,99270.66
2022-08-25T12:11:44.501Z,99284.72
2022-08-25T12:13:50.805Z,99275.81
2022-08-25T12:15:30.033Z,99281.50
2022-08-25T12:17:42.931Z,99279.25
2022-08-25T12:18:58.930Z,99271.25
2022-08-25T12:20:17.335Z,99268.75
2022-08-25T12:21:38.531Z,99273.78
2022-08-25T12:22:59.534Z,99269.13
2022-08-25T12:24:21.113Z,99264.09
2022-08-25T12:26:03.964Z,99276.28
2022-08-25T12:27:43.004Z,99260.53
2022-08-25T12:29:27.294Z,99266.63
2022-08-25T12:31:10.729Z,99268.88
2022-08-25T12:33:17.320Z,99262.97
2022-08-25T12:34:52.573Z,99251.88
2022-08-25T12:36:15.090Z,99259.75
2022-08-25T12:37:37.846Z,99255.13
2022-08-25T12:39:47.293Z,99253.34
2022-08-25T12:41:24.750Z,99241.34
2022-08-25T12:42:50.510Z,99260.63
2022-08-25T12:44:42.930Z,99263.97
2022-08-25T12:46:27.450Z,99256.09
2022-08-25T12:47:40.824Z,99252.28
2022-08-25T12:49:36.699Z,99238.25
2022-08-25T12:50:59.261Z,99245.47
2022-08-25T12:52:43.100Z,99247.28
2022-08-25T12:54:22.689Z,99235.25
2022-08-25T12:55:56.974Z,99249.63
2022-08-25T13:02:40.088Z,99233.38
2022-08-25T13:04:19.528Z,99238.59
2022-08-25T13:06:09.500Z,99236.69
2022-08-25T13:07:41.993Z,99218.25
2022-08-25T13:09:39.911Z,99237.06
2022-08-25T13:10:49.401Z,99231.84
2022-08-25T13:12:34.967Z,99233.25
2022-08-25T13:14:39.700Z,99213.38
2022-08-25T13:16:02.424Z,99232.78
2022-08-25T13:17:09.772Z,99229.81
2022-08-25T13:18:30.372Z,99227.31
2022-08-25T13:19:36.655Z,99238.41
2022-08-25T13:20:44.218Z,99236.16
2022-08-25T13:21:54.595Z,99234.44
2022-08-25T13:23:03.920Z,99229.13
2022-08-25T13:24:32.689Z,99237.09
2022-08-25T13:25:53.861Z,99228.88
2022-08-25T13:27:05.873Z,99226.50
2022-08-25T13:28:42.090Z,99229.50
2022-08-25T13:30:03.854Z,99225.31
2022-08-25T13:31:28.936Z,99226.50
2022-08-25T13:32:39.804Z,99232.56
2022-08-25T13:33:59.067Z,99219.81
2022-08-25T13:35:19.985Z,99230.81
2022-08-25T13:36:54.125Z,99234.38
2022-08-25T13:38:19.606Z,99223.28
2022-08-25T13:39:52.746Z,99231.50
2022-08-25T13:41:04.327Z,99238.06
2022-08-25T13:42:18.946Z,99230.31
2022-08-25T13:43:27.416Z,99227.22
2022-08-25T13:44:39.492Z,99227.69
2022-08-25T13:45:50.634Z,99228.66
2022-08-25T13:47:10.299Z,99226.84
2022-08-25T13:48:49.893Z,99235.91
2022-08-25T13:50:16.903Z,99236.53
2022-08-25T13:51:31.476Z,99228.31
2022-08-25T13:52:37.481Z,99231.25
2022-08-25T13:53:47.920Z,99225.78
2022-08-25T13:55:01.374Z,99219.72
2022-08-25T13:56:11.136Z,99223.91
2022-08-25T13:57:30.845Z,99227.69
2022-08-25T13:58:39.294Z,99215.69
2022-08-25T14:00:09.924Z,99204.97
2022-08-25T14:01:48.703Z,99221.28
2022-08-25T14:02:55.009Z,99224.00
2022-08-25T14:04:51.257Z,99223.56
2022-08-25T14:06:28.072Z,99220.59
2022-08-25T14:07:34.683Z,99217.00
2022-08-25T14:08:47.608Z,99213.69
2022-08-25T14:10:28.185Z,99217.47
2022-08-25T14:11:58.078Z,99211.66
2022-08-25T14:13:33.015Z,99215.34
2022-08-25T14:14:37.828Z,99214.53
2022-08-25T14:15:46.111Z,99202.34
2022-08-25T14:17:28.295Z,99211.53
2022-08-25T14:18:34.700Z,99210.69
2022-08-25T14:19:47.812Z,99188.78
2022-08-25T14:20:58.204Z,99206.31
2022-08-25T14:22:03.040Z,99203.31
2022-08-25T14:23:19.018Z,99204.97
2022-08-25T14:24:25.037Z,99201.16
2022-08-25T14:25:32.682Z,99197.97
2022-08-25T14:26:37.510Z,99206.19
2022-08-25T14:28:08.058Z,99201.31
2022-08-25T14:29:18.198Z,99196.69
2022-08-25T14:30:28.624Z,99194.16
2022-08-25T14:31:40.068Z,99181.88
2022-08-25T14:32:44.613Z,99199.63
2022-08-25T14:34:03.663Z,99196.06
2022-08-25T14:35:10.713Z,99198.81
2022-08-25T14:36:22.548Z,99195.44
2022-08-25T14:37:27.273Z,99196.75
2022-08-25T14:38:32.777Z,99191.28
2022-08-25T14:39:38.111Z,99190.91
2022-08-25T14:40:44.971Z,99190.44
2022-08-25T14:41:53.287Z,99192.38
2022-08-25T14:42:59.950Z,99189.25
2022-08-25T14:44:11.518Z,99187.81
2022-08-25T14:45:18.283Z,99196.03
2022-08-25T14:46:32.318Z,99180.22
2022-08-25T14:47:37.416Z,99195.56
2022-08-25T14:48:46.243Z,99187.59
2022-08-25T14:49:53.857Z,99199.38
2022-08-25T14:51:04.077Z,99183.78
2022-08-25T14:52:27.513Z,99179.13
2022-08-25T14:53:33.195Z,99184.59
2022-08-25T14:54:38.640Z,99189.25
2022-08-25T14:55:43.382Z,99188.41
2022-08-25T14:56:49.552Z,99189.25
2022-08-25T14:57:54.094Z,99184.59
2022-08-25T14:59:00.125Z,99186.75
2022-08-25T15:00:08.975Z,99187.59
2022-08-25T15:01:18.066Z,99179.84
2022-08-25T15:02:42.065Z,99181.88
2022-08-25T15:03:53.299Z,99179.97
2022-08-25T15:05:06.510Z,99179.13
2022-08-25T15:06:18.128Z,99190.06
2022-08-25T15:07:42.597Z,99187.00
2022-08-25T15:09:07.156Z,99182.59
2022-08-25T15:10:13.921Z,99186.16
2022-08-25T15:11:19.279Z,99180.31
2022-08-25T15:12:45.978Z,99187.69
2022-08-25T15:13:49.883Z,99178.41
2022-08-25T15:14:55.153Z,99174.63
2022-08-25T15:16:01.623Z,99178.19
2022-08-25T15:17:09.050Z,99179.03
2022-08-25T15:18:14.210Z,99177.34
2022-08-25T15:19:24.134Z,99180.69
2022-08-25T15:20:28.422Z,99176.88
2022-08-25T15:21:34.417Z,99181.28
2022-08-25T15:22:41.704Z,99182.94
2022-08-25T15:23:46.835Z,99178.78
2022-08-25T15:24:53.349Z,99176.03
2022-08-25T15:25:58.505Z,99178.78
2022-08-25T15:27:10.425Z,99183.44
2022-08-25T15:28:17.523Z,99179.47
2022-08-25T15:29:30.411Z,99171.38
2022-08-25T15:30:36.284Z,99185.78
2022-08-25T15:31:42.105Z,99181.03
2022-08-25T15:32:48.559Z,99182.47
2022-08-25T15:33:54.477Z,99180.31
2022-08-25T15:35:00.988Z,99183.06
2022-08-25T15:36:15.483Z,99175.06
2022-08-25T15:37:21.280Z,99186.88
2022-08-25T15:38:26.734Z,99189.34
2022-08-25T15:39:32.244Z,99186.28
2022-08-25T15:40:40.083Z,99185.44
2022-08-25T15:41:45.511Z,99181.88
2022-08-25T15:42:51.228Z,99179.13
2022-08-25T15:44:00.758Z,99179.72
2022-08-25T15:45:08.370Z,99179.13
2022-08-25T15:46:21.484Z,99184.13
2022-08-25T15:47:26.591Z,99179.72
2022-08-25T15:48:37.499Z,99179.97
2022-08-25T15:49:43.389Z,99183.53
2022-08-25T15:50:49.753Z,99168.88
2022-08-25T15:51:57.680Z,99176.00
2022-08-25T15:53:03.989Z,99180.91
2022-08-25T15:54:14.647Z,99175.44
2022-08-25T15:55:21.712Z,99174.59
2022-08-25T15:56:27.242Z,99163.88
2022-08-25T15:57:33.055Z,99174.59
2022-08-25T15:58:38.642Z,99173.16
2022-08-25T15:59:57.166Z,99165.41
2022-08-25T16:01:04.675Z,99162.09
2022-08-25T16:02:15.083Z,99163.16
2022-08-25T16:03:20.969Z,99150.28
2022-08-25T16:04:29.879Z,99161.50